Airfield :
LOGIN :

Register | Disclaimer

   EN    FR    IT 

 










Legend :    VFR   Marginal VFR   IFR   Intensive IFR   Very Intensive IFR
Visi :
Ceiling :
>= 8 km
>= 3000ft
5 to 8 km
1000 to 3000 ft
1500m to 5 km
500 to 1000 ft
800 to 1500m
200 to 500 ft
< 800m
< 200 ft
Symbols :   Thunderstorms  Fog  Heavy snow  Heavy precipitations  Wind > 20 kt
SIGMETs :     Misc.  Thunderstorms  Icing  Turbulence  Mountain Waves  Volcanic Ashes







- Airport Elevation : 1682 ft
- IATA code : VIT


LEVT - Vitoria Gasteiz

CURRENT METAR :
  • 301400Z 16006KT 100V250 9999 FEW040 21/08 Q1020

EXPIRED METARs :
  • 301330Z 16006KT 110V210 9999 FEW040 21/08 Q1020
  • 301300Z 20008KT 160V230 CAVOK 20/08 Q1021
  • 301230Z 21007KT 170V250 CAVOK 20/09 Q1021
  • 301200Z 22010KT 190V250 CAVOK 19/10 Q1021
  • 301130Z 22011KT 200V260 CAVOK 18/10 Q1022

TAF TAF LEVT
Valid from the 30 at 12:00 until the 31 at 12:00 UTC


301100Z 3012/3112 21009KT CAVOK TX22/3015Z TN04/3106Z
TEMPO 3012/3018 SCT040TCU
PROB40
TEMPO 3012/3021 16015G25KT
PROB40
TEMPO 3103/3112 RA SHRA SCT020TCU
No reported NOTAMs for that airfield.



MET'MAP, your aeronautical weather chart ! - Copyright ORBIFLY December 2007 - Disclaimer

ORBIFLY MET'MAP TEAM :

Programming & Development : Alexandra Zaïnal
Concept & Development : Baudouin d'Aumeries
Co-Development & Prog : Marc-Olivier Méhu
Technical & hardware support : Manuel Goepfert

Contact : metmap@orbifly.com




SOURCES & CREDITS :

   NOAA